sim
Sign-in with your pilot id or email,
or register
Callsign
Passwort

Schedule Details

Flight Number: OEO4529
Departure: Hamburg Airport (EDDH) at 11:05
Arrival: Munich Airport (EDDM) at 12:30

Weather Information
Getting current METAR information for EDDH 240750Z 24014KT 9999 FEW018 16/10 Q1001 TEMPO 24015G25KT
Getting current METAR information for EDDM 240750Z 24006KT 9999 FEW031 16/14 Q1010 NOSIG

Schedule Frequency

Route Map